Time;durP1;ratioP1;P1;durP2;ratioP2;P2;SDS_P1;SDS_P2;PMS_P1;PMS_P2;Temp;Humidity;BMP_temperature;BMP_pressure;BME280_temperature;BME280_humidity;BME280_pressure;Samples;Min_cycle;Max_cycle;Signal;HPM_P1;HPM_P2
2020/02/02 00:01:54;;;;;;;1.4;0.9;;;;;;;7.88;86.41309;936.7791;;;;
2020/02/02 00:04:12;;;;;;;2;0.8;;;;;;;7.86;85.95313;936.8571;;;;
2020/02/02 00:06:46;;;;;;;2.3;0.8;;;;;;;7.8;86.89551;937.0184;;;;
2020/02/02 00:09:07;;;;;;;2.2;1;;;;;;;7.79;86.69922;937.0245;;;;
2020/02/02 00:11:35;;;;;;;2.5;1.1;;;;;;;7.66;87.42188;936.9794;;;;
2020/02/02 00:14:03;;;;;;;3.1;1.1;;;;;;;7.77;87.36523;937.0733;;;;
2020/02/02 00:16:25;;;;;;;1.9;1;;;;;;;7.79;87.78809;936.9023;;;;
2020/02/02 00:18:53;;;;;;;2;0.9;;;;;;;7.67;86.49414;936.7561;;;;
2020/02/02 00:21:18;;;;;;;1.8;1;;;;;;;7.74;87.3125;936.9601;;;;
2020/02/02 00:23:46;;;;;;;1.4;0.8;;;;;;;7.69;88.29199;936.9871;;;;
2020/02/02 00:31:16;;;;;;;2.2;0.9;;;;;;;8.01;86.25488;937.1649;;;;
2020/02/02 00:33:36;;;;;;;1.5;0.7;;;;;;;8.07;85.2002;937.2424;;;;
2020/02/02 00:35:57;;;;;;;2.3;0.9;;;;;;;8.03;85.60156;937.0666;;;;
2020/02/02 00:38:22;;;;;;;1.4;0.9;;;;;;;7.92;86.49902;936.97;;;;
2020/02/02 00:40:52;;;;;;;1.8;1.1;;;;;;;7.99;85.70605;937.0503;;;;
2020/02/02 00:43:20;;;;;;;2.2;0.9;;;;;;;8.08;84.77246;937.0712;;;;
2020/02/02 00:45:52;;;;;;;1.6;1;;;;;;;8.02;85.37305;937.0909;;;;
2020/02/02 00:48:23;;;;;;;1.7;1;;;;;;;8.05;84.71973;936.9955;;;;
2020/02/02 00:50:44;;;;;;;2.4;1.2;;;;;;;8.15;84.69434;936.9821;;;;
2020/02/02 00:53:08;;;;;;;2.7;1.3;;;;;;;8.2;84.01172;936.9978;;;;
2020/02/02 00:55:34;;;;;;;2.3;1.2;;;;;;;8.2;83.19434;937.0764;;;;
2020/02/02 00:58:01;;;;;;;2.7;1.1;;;;;;;8.19;83.52051;937.2356;;;;
2020/02/02 01:00:25;;;;;;;1.6;0.9;;;;;;;8.17;84.62988;937.0941;;;;
2020/02/02 01:02:51;;;;;;;2.9;1.2;;;;;;;;;;;;;
2020/02/02 01:05:20;;;;;;;2.9;1.1;;;;;;;;;;;;;
2020/02/02 01:07:43;;;;;;;2.5;1.2;;;;;;;;;;;;;
2020/02/02 01:10:11;;;;;;;1.4;1;;;;;;;;;;;;;
2020/02/02 01:12:35;;;;;;;1.7;1;;;;;;;;;;;;;
2020/02/02 01:15:04;;;;;;;1.9;0.9;;;;;;;;;;;;;
2020/02/02 01:17:34;;;;;;;2.1;1.1;;;;;;;;;;;;;
2020/02/02 01:19:52;;;;;;;2.9;1.4;;;;;;;;;;;;;
2020/02/02 01:22:22;;;;;;;3.1;1.1;;;;;;;;;;;;;
2020/02/02 01:24:58;;;;;;;2.9;1.2;;;;;;;;;;;;;
2020/02/02 01:29:42;;;;;;;3.4;0.9;;;;;;;;;;;;;
2020/02/02 01:34:28;;;;;;;1.4;0.7;;;;;;;;;;;;;
2020/02/02 01:36:57;;;;;;;2;0.9;;;;;;;;;;;;;
2020/02/02 01:39:21;;;;;;;1.9;0.6;;;;;;;;;;;;;
2020/02/02 01:42:03;;;;;;;1.1;0.8;;;;;;;;;;;;;
2020/02/02 01:44:13;;;;;;;1.4;0.7;;;;;;;;;;;;;
2020/02/02 01:46:39;;;;;;;1.7;0.9;;;;;;;;;;;;;
2020/02/02 01:49:03;;;;;;;0.6;0.4;;;;;;;;;;;;;
2020/02/02 01:51:32;;;;;;;1.3;0.5;;;;;;;;;;;;;
2020/02/02 01:53:55;;;;;;;1.3;0.6;;;;;;;;;;;;;
2020/02/02 01:56:22;;;;;;;1.4;0.6;;;;;;;;;;;;;
2020/02/02 01:58:51;;;;;;;1;0.6;;;;;;;;;;;;;
2020/02/02 02:01:46;;;;;;;1;0.5;;;;;;;;;;;;;
2020/02/02 02:04:11;;;;;;;2.6;1.2;;;;;;;;;;;;;
2020/02/02 02:06:36;;;;;;;2.9;1.5;;;;;;;;;;;;;
2020/02/02 02:09:04;;;;;;;2.1;1.2;;;;;;;;;;;;;
2020/02/02 02:11:30;;;;;;;2.2;1.3;;;;;;;;;;;;;
2020/02/02 02:13:57;;;;;;;3.2;1.4;;;;;;;;;;;;;
2020/02/02 02:16:21;;;;;;;2.9;1.2;;;;;;;;;;;;;
2020/02/02 02:18:46;;;;;;;2.8;1.2;;;;;;;;;;;;;
2020/02/02 02:21:10;;;;;;;1.7;1;;;;;;;;;;;;;
2020/02/02 02:23:52;;;;;;;2;1.2;;;;;;;;;;;;;
2020/02/02 02:26:25;;;;;;;1.5;1.1;;;;;;;;;;;;;
2020/02/02 02:28:54;;;;;;;1.4;0.9;;;;;;;;;;;;;
2020/02/02 02:31:16;;;;;;;2.1;1;;;;;;;;;;;;;
2020/02/02 02:33:55;;;;;;;1.9;1;;;;;;;;;;;;;
2020/02/02 02:36:14;;;;;;;1.9;0.8;;;;;;;;;;;;;
2020/02/02 02:38:36;;;;;;;2.6;1;;;;;;;;;;;;;
2020/02/02 02:41:01;;;;;;;2.8;1.2;;;;;;;;;;;;;
2020/02/02 02:43:26;;;;;;;2.4;1;;;;;;;;;;;;;
2020/02/02 02:45:54;;;;;;;1.9;0.8;;;;;;;;;;;;;
2020/02/02 02:50:44;;;;;;;2.1;0.8;;;;;;;;;;;;;
2020/02/02 02:53:07;;;;;;;0.8;0.6;;;;;;;;;;;;;
2020/02/02 02:55:37;;;;;;;1;0.7;;;;;;;;;;;;;
2020/02/02 02:58:01;;;;;;;0.6;0.4;;;;;;;;;;;;;
2020/02/02 03:00:27;;;;;;;0.7;0.5;;;;;;;;;;;;;
2020/02/02 03:02:52;;;;;;;0.6;0.5;;;;;;;;;;;;;
2020/02/02 03:05:18;;;;;;;1.5;0.6;;;;;;;;;;;;;
2020/02/02 03:07:43;;;;;;;0.9;0.6;;;;;;;;;;;;;
2020/02/02 03:10:08;;;;;;;0.8;0.6;;;;;;;;;;;;;
2020/02/02 03:12:37;;;;;;;1.6;0.5;;;;;;;;;;;;;
2020/02/02 03:15:01;;;;;;;0.8;0.7;;;;;;;;;;;;;
2020/02/02 03:17:31;;;;;;;1.4;0.7;;;;;;;;;;;;;
2020/02/02 03:19:56;;;;;;;1.9;0.6;;;;;;;;;;;;;
2020/02/02 03:22:28;;;;;;;1.7;0.6;;;;;;;;;;;;;
2020/02/02 03:24:48;;;;;;;1.7;0.7;;;;;;;;;;;;;
2020/02/02 03:27:15;;;;;;;1.3;0.6;;;;;;;;;;;;;
2020/02/02 03:29:41;;;;;;;1.8;0.6;;;;;;;;;;;;;
2020/02/02 03:33:02;;;;;;;1.2;0.6;;;;;;;;;;;;;
2020/02/02 03:34:49;;;;;;;0.8;0.6;;;;;;;;;;;;;
2020/02/02 03:37:02;;;;;;;1.6;0.9;;;;;;;;;;;;;
2020/02/02 03:39:30;;;;;;;0.4;0.4;;;;;;;;;;;;;
2020/02/02 03:41:48;;;;;;;0.8;0.3;;;;;;;;;;;;;
2020/02/02 03:44:14;;;;;;;0.7;0.5;;;;;;;;;;;;;
2020/02/02 03:46:54;;;;;;;1.2;0.7;;;;;;;;;;;;;
2020/02/02 03:49:20;;;;;;;0.4;0.4;;;;;;;;;;;;;
2020/02/02 03:51:45;;;;;;;0.8;0.5;;;;;;;;;;;;;
2020/02/02 03:54:14;;;;;;;0.8;0.4;;;;;;;;;;;;;
2020/02/02 03:56:39;;;;;;;0.8;0.5;;;;;;;;;;;;;
2020/02/02 04:00:05;;;;;;;1.3;0.5;;;;;;;;;;;;;
2020/02/02 04:02:32;;;;;;;1.5;0.6;;;;;;;7.27;86.76563;938.1785;;;;
2020/02/02 04:05:08;;;;;;;0.8;0.5;;;;;;;7.05;86.75195;938.3347;;;;
2020/02/02 04:07:31;;;;;;;1;0.4;;;;;;;7.01;87.00684;938.0338;;;;
2020/02/02 04:10:16;;;;;;;0.5;0.3;;;;;;;7.16;86.51465;937.9856;;;;
2020/02/02 04:12:51;;;;;;;0.9;0.4;;;;;;;7.25;85.7627;938.0187;;;;
2020/02/02 04:18:17;;;;;;;2.4;0.5;;;;;;;7.43;84.70117;938.0799;;;;
2020/02/02 04:20:47;;;;;;;2.2;0.6;;;;;;;7.38;85.02832;938.069;;;;
2020/02/02 04:23:26;;;;;;;1.2;0.7;;;;;;;7.26;85.71875;937.8542;;;;
2020/02/02 04:25:49;;;;;;;2.6;0.6;;;;;;;7.28;85.69043;937.9465;;;;
2020/02/02 04:28:12;;;;;;;1;0.5;;;;;;;7.22;86.40332;937.9793;;;;
2020/02/02 04:30:46;;;;;;;1.5;0.6;;;;;;;7.24;86.86035;938.0027;;;;
2020/02/02 04:33:12;;;;;;;2.6;0.7;;;;;;;7.3;86.33984;937.856;;;;
2020/02/02 04:35:44;;;;;;;1.8;0.5;;;;;;;7.3;85.93262;937.9114;;;;
2020/02/02 04:38:13;;;;;;;0.7;0.5;;;;;;;7.43;85.72168;937.7505;;;;
2020/02/02 04:40:40;;;;;;;1.3;0.7;;;;;;;7.33;86.00586;937.8502;;;;
2020/02/02 04:43:09;;;;;;;1.4;0.6;;;;;;;7.38;86.08301;937.9066;;;;
2020/02/02 04:45:38;;;;;;;0.9;0.7;;;;;;;7.29;86.00977;937.9888;;;;
2020/02/02 04:48:07;;;;;;;1.3;0.7;;;;;;;7.3;85.5918;937.9478;;;;
2020/02/02 04:50:39;;;;;;;0.4;0.4;;;;;;;7.15;86.53613;938.0044;;;;
2020/02/02 04:53:13;;;;;;;1.6;0.6;;;;;;;7.17;86.60938;937.921;;;;
2020/02/02 04:55:45;;;;;;;0.6;0.6;;;;;;;7.3;85.8418;937.9677;;;;
2020/02/02 04:58:18;;;;;;;1.8;0.6;;;;;;;7.28;85.44141;938.0504;;;;
2020/02/02 05:00:46;;;;;;;0.8;0.5;;;;;;;7.35;84.94336;938.0089;;;;
2020/02/02 05:03:15;;;;;;;0.9;0.7;;;;;;;7.18;84.76465;937.9014;;;;
2020/02/02 05:05:42;;;;;;;1.8;0.8;;;;;;;7.2;85.2666;937.8717;;;;
2020/02/02 05:08:21;;;;;;;1.6;0.7;;;;;;;7.04;87.1709;937.968;;;;
2020/02/02 05:10:53;;;;;;;0.8;0.6;;;;;;;7.08;87.29102;937.866;;;;
2020/02/02 05:13:23;;;;;;;1.5;0.7;;;;;;;7.01;87.1543;937.7742;;;;
2020/02/02 05:15:55;;;;;;;2.2;1;;;;;;;6.83;88.06836;937.7676;;;;
2020/02/02 05:18:20;;;;;;;1.7;0.8;;;;;;;6.81;88.15332;937.8522;;;;
2020/02/02 05:20:54;;;;;;;2.1;0.9;;;;;;;6.87;87.27148;937.8596;;;;
2020/02/02 05:23:16;;;;;;;2.1;1;;;;;;;6.86;88.05078;937.7144;;;;
2020/02/02 05:25:58;;;;;;;2.1;0.8;;;;;;;6.88;87.2959;937.907;;;;
2020/02/02 05:28:24;;;;;;;1.5;0.8;;;;;;;7;85.47461;937.8069;;;;
2020/02/02 05:30:51;;;;;;;1.1;0.7;;;;;;;6.96;85.17285;937.7434;;;;
2020/02/02 05:33:18;;;;;;;1.8;0.8;;;;;;;6.99;85.24805;937.7086;;;;
2020/02/02 05:35:47;;;;;;;1;0.7;;;;;;;7.12;85.27344;937.7941;;;;
2020/02/02 05:38:11;;;;;;;1.2;0.7;;;;;;;6.93;86.08594;937.8854;;;;
2020/02/02 05:40:37;;;;;;;4.4;2.3;;;;;;;6.97;85.75195;937.7659;;;;
2020/02/02 05:43:09;;;;;;;3;2.3;;;;;;;7.01;85.12695;937.7473;;;;
2020/02/02 05:46:17;;;;;;;6;3.7;;;;;;;7.01;85.11719;937.7625;;;;
2020/02/02 05:48:44;;;;;;;5.5;4.3;;;;;;;6.88;86.11914;937.7867;;;;
2020/02/02 05:51:09;;;;;;;6.2;4.5;;;;;;;6.83;86.05273;937.8212;;;;
2020/02/02 05:53:38;;;;;;;7.5;4.9;;;;;;;6.74;86.4541;937.7883;;;;
2020/02/02 05:56:20;;;;;;;6.9;4.1;;;;;;;6.73;86.72363;937.8528;;;;
2020/02/02 05:58:47;;;;;;;8.5;4.6;;;;;;;6.73;86.96094;937.8086;;;;
2020/02/02 06:01:19;;;;;;;8.5;4.9;;;;;;;6.6;86.63965;937.7648;;;;
2020/02/02 06:03:49;;;;;;;7;4.6;;;;;;;6.32;88.07715;937.8821;;;;
2020/02/02 06:06:13;;;;;;;7.5;4.6;;;;;;;6.14;89.56445;937.8258;;;;
2020/02/02 06:08:38;;;;;;;7.6;4.9;;;;;;;6.27;89.28516;937.8364;;;;
2020/02/02 06:11:18;;;;;;;6.7;3.7;;;;;;;6.35;88.375;937.8448;;;;
2020/02/02 06:13:54;;;;;;;5;3.5;;;;;;;6.46;87.77734;937.7656;;;;
2020/02/02 06:16:26;;;;;;;7.4;3.7;;;;;;;6.61;86.8584;937.8097;;;;
2020/02/02 06:18:51;;;;;;;6.9;3.7;;;;;;;6.72;85.64453;937.8747;;;;
2020/02/02 06:21:18;;;;;;;4.8;3.2;;;;;;;6.75;85.5498;937.8391;;;;
2020/02/02 06:23:44;;;;;;;5.7;3.5;;;;;;;6.75;85.63867;937.7986;;;;
2020/02/02 06:26:17;;;;;;;6;4.2;;;;;;;6.66;85.79199;937.8094;;;;
2020/02/02 06:28:50;;;;;;;8.6;4.8;;;;;;;6.44;86.26758;937.954;;;;
2020/02/02 06:31:12;;;;;;;7.6;4.8;;;;;;;6.17;87.08496;937.7967;;;;
2020/02/02 06:33:42;;;;;;;10.5;5.1;;;;;;;6.22;87.00586;937.8251;;;;
2020/02/02 06:36:09;;;;;;;7;5.3;;;;;;;6.08;87.34766;937.8418;;;;
2020/02/02 06:38:40;;;;;;;6.8;5.1;;;;;;;6.16;87.2959;937.8461;;;;
2020/02/02 06:41:00;;;;;;;7.7;5.1;;;;;;;6.24;87.25586;937.8445;;;;
2020/02/02 06:44:15;;;;;;;7.1;4.5;;;;;;;6.3;86.44336;937.8767;;;;
2020/02/02 06:46:44;;;;;;;3.8;3.2;;;;;;;6.24;87.11133;937.7654;;;;
2020/02/02 06:49:19;;;;;;;4.9;2.9;;;;;;;6.19;87.51855;937.8042;;;;
2020/02/02 06:51:36;;;;;;;5.7;3.1;;;;;;;6.25;87.05664;937.8552;;;;
2020/02/02 06:54:04;;;;;;;6;3.4;;;;;;;6.11;87.15137;937.8734;;;;
2020/02/02 06:56:30;;;;;;;8;6.2;;;;;;;6;86.76758;937.8649;;;;
2020/02/02 06:58:56;;;;;;;6.9;4.9;;;;;;;5.85;88.11426;937.8867;;;;
2020/02/02 07:01:26;;;;;;;7;4.4;;;;;;;5.91;88.26465;937.7242;;;;
2020/02/02 07:03:51;;;;;;;9.1;6.3;;;;;;;5.99;88.38184;937.6677;;;;
2020/02/02 07:06:17;;;;;;;18;11.2;;;;;;;6.16;87.46582;937.7709;;;;
2020/02/02 07:08:46;;;;;;;14.7;10.5;;;;;;;6.34;86.66602;937.858;;;;
2020/02/02 07:11:15;;;;;;;17.3;10.5;;;;;;;6.43;86.40137;937.7117;;;;
2020/02/02 07:13:42;;;;;;;14.3;9.9;;;;;;;6.57;85.86523;937.7546;;;;
2020/02/02 07:16:09;;;;;;;15;9.4;;;;;;;6.81;84.4873;937.8628;;;;
2020/02/02 07:18:32;;;;;;;12.7;8.9;;;;;;;6.81;84.26074;937.7806;;;;
2020/02/02 07:21:08;;;;;;;10.7;8.4;;;;;;;6.84;84.1875;937.8074;;;;
2020/02/02 07:23:37;;;;;;;10.7;6.4;;;;;;;7;84.54785;937.7722;;;;
2020/02/02 07:26:05;;;;;;;7.7;6.3;;;;;;;7.45;83.29883;937.7008;;;;
2020/02/02 07:28:37;;;;;;;8.5;5.8;;;;;;;8.06;81.05469;937.6212;;;;
2020/02/02 07:31:26;;;;;;;8.1;6;;;;;;;8.65;77.83496;937.6091;;;;
2020/02/02 07:33:29;;;;;;;8;5.5;;;;;;;9.14;75.88574;937.6517;;;;
2020/02/02 07:36:01;;;;;;;6.5;5.6;;;;;;;9.33;76.3877;937.5823;;;;
2020/02/02 07:38:25;;;;;;;9.4;5.9;;;;;;;9.28;74.99023;937.6102;;;;
2020/02/02 07:40:56;;;;;;;9.9;6.7;;;;;;;9.7;73.40918;937.5737;;;;
2020/02/02 07:43:24;;;;;;;6.6;4.9;;;;;;;9.64;73.36523;937.5659;;;;
2020/02/02 07:45:59;;;;;;;4.7;4.1;;;;;;;9.76;73.33984;937.6619;;;;
2020/02/02 07:48:30;;;;;;;5.3;3.8;;;;;;;9.99;72.33203;937.683;;;;
2020/02/02 07:51:02;;;;;;;5.8;4.2;;;;;;;9.93;72.56934;937.8295;;;;
2020/02/02 07:53:34;;;;;;;4.5;3.5;;;;;;;9.3;74.17285;937.825;;;;
2020/02/02 07:55:55;;;;;;;4.7;3.8;;;;;;;8.81;76.29492;937.8555;;;;
2020/02/02 07:58:20;;;;;;;7.7;4.9;;;;;;;8.74;77.08008;937.8638;;;;
2020/02/02 08:00:47;;;;;;;8.7;5.3;;;;;;;8.41;78.55371;937.9153;;;;
2020/02/02 08:03:18;;;;;;;8.2;5.9;;;;;;;8.28;78.99609;937.8022;;;;
2020/02/02 08:05:48;;;;;;;7.9;6;;;;;;;8.15;80.08398;937.7489;;;;
2020/02/02 08:08:13;;;;;;;11.4;7.8;;;;;;;8.07;80.5;937.757;;;;
2020/02/02 08:10:38;;;;;;;13.3;9.1;;;;;;;7.96;81.44434;937.6777;;;;
2020/02/02 08:13:05;;;;;;;16.9;12.2;;;;;;;7.97;81.96875;937.7509;;;;
2020/02/02 08:15:29;;;;;;;14.8;10.6;;;;;;;8.11;81.50781;937.7213;;;;
2020/02/02 08:17:54;;;;;;;13.7;10.3;;;;;;;8.05;81.69043;937.6711;;;;
2020/02/02 08:20:19;;;;;;;9.2;5.8;;;;;;;8.11;81.99609;937.5634;;;;
2020/02/02 08:22:50;;;;;;;9.9;6;;;;;;;8.21;82.00195;937.7039;;;;
2020/02/02 08:25:22;;;;;;;9.8;7.5;;;;;;;8.18;82.16699;937.7104;;;;
2020/02/02 08:28:14;;;;;;;11.5;7.8;;;;;;;8.26;82.1377;937.663;;;;
2020/02/02 08:31:12;;;;;;;9.9;6.7;;;;;;;8.15;82.60449;937.6386;;;;
2020/02/02 08:33:43;;;;;;;6.4;4.7;;;;;;;8.17;83.05273;937.5947;;;;
2020/02/02 08:35:55;;;;;;;8.1;5.1;;;;;;;8.27;82.82031;937.5926;;;;
2020/02/02 08:38:23;;;;;;;8.3;4.6;;;;;;;8.27;82.75195;937.5974;;;;
2020/02/02 08:40:47;;;;;;;4.2;2.9;;;;;;;8.39;81.43652;937.5559;;;;
2020/02/02 08:43:13;;;;;;;3;1.9;;;;;;;8.58;79.95898;937.3466;;;;
2020/02/02 08:45:43;;;;;;;7.4;6.2;;;;;;;8.51;81.32227;937.2988;;;;
2020/02/02 08:48:09;;;;;;;6.9;5.7;;;;;;;8.63;81.80078;937.2391;;;;
2020/02/02 08:50:37;;;;;;;6;3.9;;;;;;;8.94;80.42578;937.2278;;;;
2020/02/02 08:53:23;;;;;;;5.6;4.4;;;;;;;9.06;80.02441;937.2789;;;;
2020/02/02 08:55:36;;;;;;;3.7;2.1;;;;;;;9.21;79.13086;937.2244;;;;
2020/02/02 08:58:10;;;;;;;3.4;1.9;;;;;;;9.21;78.42676;937.1986;;;;
2020/02/02 09:00:33;;;;;;;2.2;1.7;;;;;;;9.41;79.46387;937.1644;;;;
2020/02/02 09:03:14;;;;;;;2.7;1.8;;;;;;;9.66;79.66992;937.1671;;;;
2020/02/02 09:05:35;;;;;;;5.9;4.2;;;;;;;9.72;79.45313;937.0317;;;;
2020/02/02 09:08:00;;;;;;;13.8;9.8;;;;;;;9.44;80.1875;937.0212;;;;
2020/02/02 09:10:25;;;;;;;12.9;8.7;;;;;;;9.2;79.73242;936.7905;;;;
2020/02/02 09:12:53;;;;;;;12.2;8.4;;;;;;;9.15;80.42969;936.6534;;;;
2020/02/02 09:15:16;;;;;;;11.7;7.9;;;;;;;9.22;79.97559;936.6529;;;;
2020/02/02 09:20:06;;;;;;;10.1;6.3;;;;;;;8.82;82.0166;936.7109;;;;
2020/02/02 09:22:36;;;;;;;5.8;3.2;;;;;;;8.66;82.48633;936.7035;;;;
2020/02/02 09:25:01;;;;;;;7;3.6;;;;;;;8.66;82.61133;936.6981;;;;
2020/02/02 09:27:28;;;;;;;7.9;4.5;;;;;;;8.66;82.94043;936.7266;;;;
2020/02/02 09:30:07;;;;;;;8;5;;;;;;;8.6;82.69141;936.7184;;;;
2020/02/02 09:32:39;;;;;;;4.8;2.9;;;;;;;8.79;82.39844;936.6277;;;;
2020/02/02 09:35:05;;;;;;;15.4;7.9;;;;;;;8.94;82.25488;936.5075;;;;
2020/02/02 09:37:28;;;;;;;771.1;442.4;;;;;;;8.92;81.58203;936.605;;;;
2020/02/02 09:40:37;;;;;;;297.2;182.9;;;;;;;8.73;82.25;936.5854;;;;
2020/02/02 09:43:17;;;;;;;7.8;6.1;;;;;;;8.7;82.33594;936.5844;;;;
2020/02/02 09:48:06;;;;;;;5.6;3.5;;;;;;;8.8;81.25098;936.4252;;;;
2020/02/02 09:53:07;;;;;;;7.2;3.2;;;;;;;9.19;80.01563;936.4402;;;;
2020/02/02 09:55:48;;;;;;;5.4;3.9;;;;;;;9.45;78.81152;936.4119;;;;
2020/02/02 09:58:20;;;;;;;6.5;4;;;;;;;9.63;78.59375;936.3003;;;;
2020/02/02 10:00:53;;;;;;;6;3.5;;;;;;;9.82;77.3291;936.2633;;;;
2020/02/02 10:03:21;;;;;;;9.7;4.6;;;;;;;10.21;76.88477;936.3689;;;;
2020/02/02 10:05:44;;;;;;;6.2;3.6;;;;;;;10.48;76.53418;936.4208;;;;
2020/02/02 10:08:09;;;;;;;4.2;3;;;;;;;10.77;75.77344;936.2675;;;;
2020/02/02 10:10:41;;;;;;;4.4;3.6;;;;;;;10.86;74.26953;936.1559;;;;
2020/02/02 10:13:03;;;;;;;7.7;4.5;;;;;;;10.84;73.36426;936.1192;;;;
2020/02/02 10:15:32;;;;;;;5;3;;;;;;;10.89;72.97168;936.0628;;;;
2020/02/02 10:18:10;;;;;;;4.5;3.1;;;;;;;11.19;72.96484;936.014;;;;
2020/02/02 10:21:16;;;;;;;4.8;2.9;;;;;;;11.29;72.19434;935.8777;;;;
2020/02/02 10:23:50;;;;;;;5.3;2.6;;;;;;;11.37;72.83691;935.826;;;;
2020/02/02 10:26:25;;;;;;;5.2;2.7;;;;;;;11.4;70.8623;935.8205;;;;
2020/02/02 10:28:54;;;;;;;2.7;2;;;;;;;11.61;70.99902;935.7222;;;;
2020/02/02 10:31:23;;;;;;;3.8;1.6;;;;;;;11.71;71.71387;935.7522;;;;
2020/02/02 10:33:50;;;;;;;4.7;2.4;;;;;;;11.73;70.6416;935.6939;;;;
2020/02/02 10:36:23;;;;;;;4.4;3.3;;;;;;;11.83;71.12793;935.7346;;;;
2020/02/02 10:38:57;;;;;;;3;2.4;;;;;;;11.92;69.58496;935.741;;;;
2020/02/02 10:41:40;;;;;;;4.1;3.2;;;;;;;11.97;69.12207;935.7241;;;;
2020/02/02 10:44:20;;;;;;;1.3;1.1;;;;;;;12.05;68.0127;935.7723;;;;
2020/02/02 10:46:55;;;;;;;3;1.7;;;;;;;12;69.97559;935.8311;;;;
2020/02/02 10:49:26;;;;;;;3.4;1.9;;;;;;;11.99;70.43066;935.863;;;;
2020/02/02 10:52:00;;;;;;;2.6;1.9;;;;;;;11.79;72.58398;935.6943;;;;
2020/02/02 10:54:33;;;;;;;2.6;2.3;;;;;;;11.75;73.62207;935.8607;;;;
2020/02/02 10:57:03;;;;;;;4.8;3;;;;;;;11.72;74.0625;935.8335;;;;
2020/02/02 10:59:29;;;;;;;2.9;1.7;;;;;;;11.75;75.38477;935.8328;;;;
2020/02/02 11:01:53;;;;;;;3.9;2.2;;;;;;;11.64;74.94141;935.7489;;;;
2020/02/02 11:04:31;;;;;;;3;1.9;;;;;;;11.68;75.16602;935.7442;;;;
2020/02/02 11:06:57;;;;;;;6.2;3;;;;;;;11.67;76.02539;935.6253;;;;
2020/02/02 11:09:29;;;;;;;8;5.1;;;;;;;11.46;77.42676;935.7061;;;;
2020/02/02 11:11:54;;;;;;;6.7;4.7;;;;;;;11.36;77.66309;935.5566;;;;
2020/02/02 11:14:24;;;;;;;7.9;4.2;;;;;;;11.39;77.80273;935.5758;;;;
2020/02/02 11:16:56;;;;;;;9;4;;;;;;;11.35;78.19824;935.6514;;;;
2020/02/02 11:19:29;;;;;;;6.3;4.1;;;;;;;11.32;78.55859;935.5413;;;;
2020/02/02 11:22:00;;;;;;;5.6;2.8;;;;;;;11.37;78.70508;935.5645;;;;
2020/02/02 11:24:24;;;;;;;39.7;20.4;;;;;;;11.33;78.68555;935.527;;;;
2020/02/02 11:26:50;;;;;;;34.9;18.3;;;;;;;11.46;77.46191;935.38;;;;
2020/02/02 11:29:18;;;;;;;9.6;6.2;;;;;;;11.33;77.26758;935.323;;;;
2020/02/02 11:31:40;;;;;;;16.3;8.3;;;;;;;11.37;79.26465;935.3844;;;;
2020/02/02 11:34:17;;;;;;;10.7;5.3;;;;;;;11.25;78.51074;935.1937;;;;
2020/02/02 11:36:47;;;;;;;8.1;4.1;;;;;;;11.32;77.54004;935.3357;;;;
2020/02/02 11:39:14;;;;;;;5.2;2.4;;;;;;;11.06;79.67676;935.3237;;;;
2020/02/02 11:41:57;;;;;;;4.1;2.2;;;;;;;10.96;79.23535;935.1605;;;;
2020/02/02 11:44:26;;;;;;;4.2;3;;;;;;;10.99;76.46484;935.1694;;;;
2020/02/02 11:46:50;;;;;;;4.9;2.7;;;;;;;11.12;77.07031;935.1732;;;;
2020/02/02 11:49:23;;;;;;;3.5;2.7;;;;;;;11.39;75.39258;935.0217;;;;
2020/02/02 11:52:16;;;;;;;4.3;2.4;;;;;;;11.43;76.80469;935.0204;;;;
2020/02/02 11:57:21;;;;;;;3.3;2.2;;;;;;;11.09;78.11719;934.9517;;;;
2020/02/02 11:59:45;;;;;;;4.8;2.7;;;;;;;11.16;79.01074;934.9247;;;;
2020/02/02 12:02:10;;;;;;;5.2;2.5;;;;;;;11.22;78.50586;935.0446;;;;
2020/02/02 12:04:43;;;;;;;2.4;1.6;;;;;;;11.45;78.21484;934.8419;;;;
2020/02/02 12:07:14;;;;;;;4.5;2.1;;;;;;;11.72;76.8457;934.8413;;;;
2020/02/02 12:09:40;;;;;;;3.4;2.3;;;;;;;12;75.71582;934.7386;;;;
2020/02/02 12:12:19;;;;;;;4;2.3;;;;;;;12.17;73.49902;934.6947;;;;
2020/02/02 12:14:53;;;;;;;12.1;4.3;;;;;;;12.3;75.96191;934.6906;;;;
2020/02/02 12:18:14;;;;;;;4.2;1.8;;;;;;;12.09;76.9668;934.7204;;;;
2020/02/02 12:20:47;;;;;;;4.5;2.4;;;;;;;12.1;76.95898;934.5112;;;;
2020/02/02 12:23:23;;;;;;;8.1;5.4;;;;;;;11.91;74.83887;934.5712;;;;
2020/02/02 12:25:53;;;;;;;9.3;5.4;;;;;;;11.83;78.04297;934.5108;;;;
2020/02/02 12:28:27;;;;;;;7;4.5;;;;;;;11.91;77.98926;934.4548;;;;
2020/02/02 12:30:52;;;;;;;10;4.9;;;;;;;11.78;76.53516;934.4592;;;;
2020/02/02 12:33:21;;;;;;;15.4;8.3;;;;;;;11.84;76.72949;934.3441;;;;
2020/02/02 12:35:47;;;;;;;14.8;11.3;;;;;;;11.95;75.89941;934.2991;;;;
2020/02/02 12:38:20;;;;;;;19.9;11.2;;;;;;;12.07;76.6416;934.394;;;;
2020/02/02 12:40:51;;;;;;;7.5;4.6;;;;;;;11.98;77.82031;934.3445;;;;
2020/02/02 12:43:16;;;;;;;5.7;3.6;;;;;;;11.67;74.13477;934.2377;;;;
2020/02/02 12:45:48;;;;;;;8.9;5.8;;;;;;;11.72;76.06543;934.4082;;;;
2020/02/02 12:48:17;;;;;;;5.4;3.4;;;;;;;11.77;77.12891;934.3308;;;;
2020/02/02 12:50:43;;;;;;;6.7;4;;;;;;;11.8;77.59277;934.4156;;;;
2020/02/02 12:53:07;;;;;;;22.2;11.7;;;;;;;12.06;76.5957;934.4811;;;;
2020/02/02 12:55:39;;;;;;;18.1;11.1;;;;;;;12.15;76.42969;934.3244;;;;
2020/02/02 12:58:12;;;;;;;15.7;8.4;;;;;;;12.25;75.75684;934.3403;;;;
2020/02/02 13:00:45;;;;;;;11.9;6.2;;;;;;;12.14;76.93066;934.3875;;;;
2020/02/02 13:03:08;;;;;;;6.1;3.9;;;;;;;12.22;76.36035;934.2183;;;;
2020/02/02 13:06:31;;;;;;;4.8;3;;;;;;;11.67;77.87598;934.291;;;;
2020/02/02 13:08:56;;;;;;;6.3;2.9;;;;;;;11.71;77.93066;934.2615;;;;
2020/02/02 13:11:22;;;;;;;6.3;3;;;;;;;11.65;78.28516;934.213;;;;
2020/02/02 13:14:00;;;;;;;4.9;2.5;;;;;;;11.65;78.99609;934.1213;;;;
2020/02/02 13:16:32;;;;;;;5.7;2.2;;;;;;;11.57;79.79395;934.2048;;;;
2020/02/02 13:19:06;;;;;;;3.4;1.7;;;;;;;11.24;80.22656;934.1592;;;;
2020/02/02 13:21:33;;;;;;;2.8;1.6;;;;;;;11.33;79.25586;934.2715;;;;
2020/02/02 13:24:06;;;;;;;2.5;1.2;;;;;;;11.11;81.11719;934.2704;;;;
2020/02/02 13:26:32;;;;;;;4.1;1.5;;;;;;;11.4;79.12207;934.1121;;;;
2020/02/02 13:29:05;;;;;;;2.4;1.3;;;;;;;11.69;76.95215;934.1538;;;;
2020/02/02 13:31:39;;;;;;;6;2.2;;;;;;;11.55;75.63672;933.9489;;;;
2020/02/02 13:33:58;;;;;;;6.4;1.9;;;;;;;11.45;76.06445;934.1323;;;;
2020/02/02 13:36:26;;;;;;;3.9;1.9;;;;;;;11.52;75.6416;934.1864;;;;
2020/02/02 13:38:53;;;;;;;42.2;32.1;;;;;;;11.45;75.11426;933.9641;;;;
2020/02/02 13:41:20;;;;;;;6.3;2.7;;;;;;;11.46;76.58008;934.1426;;;;
2020/02/02 13:43:46;;;;;;;2.6;1.5;;;;;;;11.49;76.75684;934.153;;;;
2020/02/02 13:46:17;;;;;;;4.1;2.2;;;;;;;11.48;76.43652;934.0773;;;;
2020/02/02 13:48:44;;;;;;;2.9;1.4;;;;;;;11.32;75.5498;934.0492;;;;
2020/02/02 13:51:13;;;;;;;1.4;0.9;;;;;;;11.29;76.3457;934.0644;;;;
2020/02/02 13:53:45;;;;;;;1.8;1.1;;;;;;;11.31;74.75879;934.0492;;;;
2020/02/02 13:56:13;;;;;;;6.1;2.4;;;;;;;11.59;76.23926;934.0818;;;;
2020/02/02 13:58:42;;;;;;;6.1;4;;;;;;;11.58;76.93457;934.0955;;;;
2020/02/02 14:01:11;;;;;;;5;3.8;;;;;;;11.68;76.44824;934.0685;;;;
2020/02/02 14:03:36;;;;;;;6.9;5.3;;;;;;;11.56;76.17578;934.0533;;;;
2020/02/02 14:06:05;;;;;;;10.3;6.3;;;;;;;11.64;77.33398;934.0558;;;;
2020/02/02 14:08:29;;;;;;;13.5;7.3;;;;;;;11.77;76.64648;934.0317;;;;
2020/02/02 14:10:54;;;;;;;9.3;7.4;;;;;;;11.5;77.46973;934.0517;;;;
2020/02/02 14:13:19;;;;;;;12.1;8.7;;;;;;;11.56;78.36035;934.0891;;;;
2020/02/02 14:15:47;;;;;;;9.5;6.3;;;;;;;11.59;77.98926;934.1728;;;;
2020/02/02 14:18:11;;;;;;;13.4;6;;;;;;;11.5;78.61426;934.1841;;;;
2020/02/02 14:20:42;;;;;;;8.2;4;;;;;;;11.53;77.01855;934.0692;;;;
2020/02/02 14:23:08;;;;;;;10;5.3;;;;;;;11.74;76.88379;934.1067;;;;
2020/02/02 14:25:40;;;;;;;7.5;3.8;;;;;;;11.77;77.4375;934.2965;;;;
2020/02/02 14:28:05;;;;;;;3.3;2;;;;;;;11.52;74.6123;934.2781;;;;
2020/02/02 14:30:35;;;;;;;6.9;2.8;;;;;;;11.52;76.06543;934.3092;;;;
2020/02/02 14:33:02;;;;;;;10.5;7.4;;;;;;;11.73;76.14941;934.3069;;;;
2020/02/02 14:35:33;;;;;;;9.2;5;;;;;;;11.82;76.33691;934.2427;;;;
2020/02/02 14:38:05;;;;;;;6.4;3.4;;;;;;;11.94;75.54395;934.3558;;;;
2020/02/02 14:40:29;;;;;;;9.4;5.6;;;;;;;12.05;75.81543;934.2401;;;;
2020/02/02 14:42:55;;;;;;;5.2;3.9;;;;;;;12.07;76.52832;934.3621;;;;
2020/02/02 14:45:20;;;;;;;12.7;8.6;;;;;;;12.02;76.75977;934.3128;;;;
2020/02/02 14:47:46;;;;;;;8.4;5;;;;;;;12.1;75.36621;934.2814;;;;
2020/02/02 14:50:17;;;;;;;8.6;5.7;;;;;;;12.13;76.04688;934.3109;;;;
2020/02/02 14:52:42;;;;;;;11.3;4.8;;;;;;;12.1;77.58887;934.4402;;;;
2020/02/02 14:55:11;;;;;;;19.2;13.4;;;;;;;11.98;77.68066;934.5536;;;;
2020/02/02 14:57:36;;;;;;;8.9;5.4;;;;;;;11.9;77.82715;934.4906;;;;
2020/02/02 15:00:02;;;;;;;6.5;4.5;;;;;;;11.69;76.77051;934.37;;;;
2020/02/02 15:03:20;;;;;;;8.3;4.4;;;;;;;11.61;77.16797;934.4464;;;;
2020/02/02 15:05:45;;;;;;;15;9.1;;;;;;;11.73;76.92773;934.4808;;;;
2020/02/02 15:08:11;;;;;;;9;5.1;;;;;;;11.84;76.91113;934.4333;;;;
2020/02/02 15:10:37;;;;;;;14.5;9.3;;;;;;;11.67;78.04004;934.5471;;;;
2020/02/02 15:13:03;;;;;;;15.1;9.5;;;;;;;11.82;77.0791;934.5076;;;;
2020/02/02 15:16:16;;;;;;;4.9;3.3;;;;;;;11.62;79.20898;934.4537;;;;
2020/02/02 15:18:50;;;;;;;6.3;3.8;;;;;;;11.66;78.71191;934.5582;;;;
2020/02/02 15:21:12;;;;;;;8.6;3.9;;;;;;;11.52;78.93945;934.5747;;;;
2020/02/02 15:23:37;;;;;;;7.2;4.7;;;;;;;11.57;78.86719;934.6425;;;;
2020/02/02 15:26:21;;;;;;;7.6;5.3;;;;;;;11.43;79.51563;934.6322;;;;
2020/02/02 15:28:50;;;;;;;5.4;3.5;;;;;;;11.05;77.35645;934.6559;;;;
2020/02/02 15:31:16;;;;;;;7.1;3.9;;;;;;;11.14;77.85254;934.8011;;;;
2020/02/02 15:33:44;;;;;;;6.2;3.4;;;;;;;11.26;78.19238;934.8781;;;;
2020/02/02 15:36:09;;;;;;;6.2;2.8;;;;;;;11.19;76.82031;934.6242;;;;
2020/02/02 15:38:39;;;;;;;7.4;4.4;;;;;;;11.1;79.05664;934.8154;;;;
2020/02/02 15:41:03;;;;;;;4.9;3.1;;;;;;;11.17;78.08398;934.6752;;;;
2020/02/02 15:43:28;;;;;;;7.7;4;;;;;;;11.23;78.62207;934.8748;;;;
2020/02/02 15:46:00;;;;;;;12.2;8.2;;;;;;;11.13;78.44531;934.8967;;;;
2020/02/02 15:48:24;;;;;;;15.5;9.4;;;;;;;11.16;78.63379;935.0051;;;;
2020/02/02 15:50:48;;;;;;;11.4;7.6;;;;;;;11.2;78.64941;934.8506;;;;
2020/02/02 15:53:20;;;;;;;10.6;6.6;;;;;;;11.03;79.18164;934.8455;;;;
2020/02/02 15:55:47;;;;;;;6.4;4.3;;;;;;;10.93;79.07031;934.7646;;;;
2020/02/02 15:58:13;;;;;;;10;5;;;;;;;11.05;79.65234;934.887;;;;
2020/02/02 16:00:37;;;;;;;16.9;8.2;;;;;;;11.16;79.22754;934.9645;;;;
2020/02/02 16:03:23;;;;;;;13.2;5.3;;;;;;;11.19;79.25586;934.9255;;;;